Sankoumaru 31 — JD2200 — position and weather

sailwx.info

Track history (hours):
 
Tides and Currents Weather Stations Pressure Air Temp Water Temp Dewpoint Dewpoint Depression Visibility Wind Speed Wind Dir Waves Ship Positions

Sankoumaru 31

Last reported at 2017-Feb-21 21:06 UTC. Time now 2017-Feb-25 00:44 UTC.
Position N 34°52' E 139°46'.

Length 75 m; draft 5 m.

Type: Cargo ship. MMSI: 431501842.

Date/timePositionNaut miles runAvg speedWind from/ knotsBaromVisibWave heightAir tempDewpointWater temp
2017-Feb-21 21:06N 34°52' E 139°46'610.6
2017-Feb-21 20:33N 34°51' E 139°39'345 6.8
2017-Feb-19 18:06N 34°04' E 132°44'712.5
2017-Feb-19 17:31N 34°01' E 132°37'1212.7
2017-Feb-19 16:33N 33°53' E 132°25'23 0.5
2017-Feb-17 16:28N 33°53' E 131°58'9 9.4
2017-Feb-17 15:29N 33°47' E 132°07'1111.8
2017-Feb-17 14:32N 33°50' E 132°20'1111.4
2017-Feb-17 13:33N 33°57' E 132°31'1312.3
2017-Feb-17 12:32N 34°04' E 132°43'  
Track history (hours):
 
Tides and Currents Weather Stations Pressure Air Temp Water Temp Dewpoint Dewpoint Depression Visibility Wind Speed Wind Dir Waves Ship Positions

Sankoumaru 31

Last reported at 2017-Feb-21 21:06 UTC. Time now 2017-Feb-25 00:44 UTC.
Position N 34°52' E 139°46'.

Length 75 m; draft 5 m.

Type: Cargo ship. MMSI: 431501842.

Date/timePositionNaut miles runAvg speedWind from/ knotsBaromVisibWave heightAir tempDewpointWater temp
2017-Feb-21 21:06N 34°52' E 139°46'610.6
2017-Feb-21 20:33N 34°51' E 139°39'345 6.8
2017-Feb-19 18:06N 34°04' E 132°44'712.5
2017-Feb-19 17:31N 34°01' E 132°37'1212.7
2017-Feb-19 16:33N 33°53' E 132°25'23 0.5
2017-Feb-17 16:28N 33°53' E 131°58'9 9.4
2017-Feb-17 15:29N 33°47' E 132°07'1111.8
2017-Feb-17 14:32N 33°50' E 132°20'1111.4
2017-Feb-17 13:33N 33°57' E 132°31'1312.3
2017-Feb-17 12:32N 34°04' E 132°43'  

Dump ship's entire track history